createdAt,value
2023-02-14T00:00:29.744Z,103051.06
2023-02-14T00:02:57.092Z,103052.91
2023-02-14T00:05:23.864Z,103049.63
2023-02-14T00:07:50.529Z,103050.72
2023-02-14T00:10:17.641Z,103056.06
2023-02-14T00:12:44.391Z,103056.16
2023-02-14T00:15:22.970Z,103055.31
2023-02-14T00:17:51.926Z,103048.69
2023-02-14T00:20:18.638Z,103042.72
2023-02-14T00:22:45.188Z,103047.16
2023-02-14T00:25:11.802Z,103048.31
2023-02-14T00:27:38.387Z,103040.44
2023-02-14T00:30:09.566Z,103037.19
2023-02-14T00:32:42.019Z,103037.28
2023-02-14T00:35:09.785Z,103040.94
2023-02-14T00:37:36.735Z,103036.69
2023-02-14T00:40:03.738Z,103040.25
2023-02-14T00:42:31.085Z,103037.56
2023-02-14T00:44:57.594Z,103042.00
2023-02-14T00:47:24.166Z,103038.78
2023-02-14T00:49:51.637Z,103037.13
2023-02-14T00:52:18.326Z,103033.78
2023-02-14T00:54:44.979Z,103031.19
2023-02-14T00:57:13.805Z,103035.53
2023-02-14T00:59:40.357Z,103033.25
2023-02-14T01:02:06.949Z,103043.69
2023-02-14T01:04:34.401Z,103049.03
2023-02-14T01:07:01.003Z,103038.75
2023-02-14T01:09:27.790Z,103041.41
2023-02-14T01:11:54.441Z,103049.34
2023-02-14T01:14:21.073Z,103042.47
2023-02-14T01:16:49.612Z,103052.00
2023-02-14T01:19:16.792Z,103047.81
2023-02-14T01:21:43.797Z,103045.38
2023-02-14T01:24:11.830Z,103048.88
2023-02-14T01:26:38.421Z,103045.69
2023-02-14T01:29:05.097Z,103048.31
2023-02-14T01:31:33.729Z,103038.84
2023-02-14T01:34:00.647Z,103040.56
2023-02-14T01:36:28.579Z,103041.56
2023-02-14T01:38:59.031Z,103040.03
2023-02-14T01:41:27.940Z,103039.19
2023-02-14T01:44:20.462Z,103034.16
2023-02-14T01:46:47.419Z,103035.09
2023-02-14T01:49:13.917Z,103023.88
2023-02-14T01:51:50.267Z,103025.78
2023-02-14T01:54:18.722Z,103025.88
2023-02-14T01:56:49.831Z,103030.25
2023-02-14T01:59:21.014Z,103028.59
2023-02-14T02:01:49.787Z,103022.66
2023-02-14T02:04:22.460Z,103030.50
2023-02-14T02:06:55.403Z,103025.38
2023-02-14T02:09:28.897Z,103021.22
2023-02-14T02:11:55.421Z,103023.88
2023-02-14T02:14:23.038Z,103015.31
2023-02-14T02:17:01.727Z,103016.25
2023-02-14T02:20:05.977Z,103011.97
2023-02-14T02:22:35.562Z,103008.63
2023-02-14T02:25:59.532Z,103006.09
2023-02-14T02:28:50.585Z,103008.84
2023-02-14T02:31:26.387Z,103014.13
2023-02-14T02:34:22.372Z,103016.25
2023-02-14T02:37:13.262Z,103007.78
2023-02-14T02:40:10.591Z,103007.03
2023-02-14T02:43:01.722Z,102999.69
2023-02-14T02:45:57.356Z,103001.47
2023-02-14T02:48:34.441Z,102998.97
2023-02-14T02:51:23.916Z,102998.22
2023-02-14T02:53:50.808Z,103002.63
2023-02-14T02:56:44.449Z,102997.44
2023-02-14T02:59:20.647Z,103001.03
2023-02-14T03:02:03.947Z,102997.69
2023-02-14T03:04:51.675Z,102996.91
2023-02-14T03:07:36.680Z,102997.09
2023-02-14T03:10:26.546Z,102993.63
2023-02-14T03:12:54.282Z,103002.34
2023-02-14T03:15:49.050Z,103003.34
2023-02-14T03:18:23.588Z,103002.53
2023-02-14T03:21:00.638Z,103006.06
2023-02-14T03:23:59.604Z,103000.97
2023-02-14T03:26:36.250Z,103003.63
2023-02-14T03:29:05.822Z,103006.16
2023-02-14T03:31:35.794Z,103006.22
2023-02-14T03:34:07.408Z,103009.72
2023-02-14T03:36:52.096Z,103002.09
2023-02-14T03:39:32.607Z,103004.84
2023-02-14T03:42:08.189Z,103007.47
2023-02-14T03:44:37.873Z,103004.97
2023-02-14T03:47:11.121Z,103003.38
2023-02-14T03:49:43.910Z,103007.75
2023-02-14T03:52:12.498Z,103005.19
2023-02-14T03:54:39.134Z,103009.66
2023-02-14T03:57:23.647Z,103015.69
2023-02-14T03:59:50.712Z,103007.09
2023-02-14T04:02:24.508Z,103008.88
2023-02-14T04:04:54.318Z,103003.88
2023-02-14T04:07:23.068Z,102993.66
2023-02-14T04:09:50.320Z,102998.81
2023-02-14T04:12:26.556Z,103002.22
2023-02-14T04:14:58.908Z,103003.22
2023-02-14T04:17:43.739Z,103004.13
2023-02-14T04:20:10.711Z,103005.97
2023-02-14T04:22:37.310Z,103003.50
2023-02-14T04:25:04.170Z,102997.69
2023-02-14T04:27:30.805Z,102998.50
2023-02-14T04:29:57.489Z,102991.78
2023-02-14T04:32:24.202Z,102991.78
2023-02-14T04:34:50.978Z,102990.16
2023-02-14T04:37:19.815Z,102989.25
2023-02-14T04:39:46.868Z,102987.63
2023-02-14T04:42:13.796Z,102985.88
2023-02-14T04:44:40.353Z,102987.84
2023-02-14T04:47:08.108Z,102982.66
2023-02-14T04:49:35.311Z,102980.88
2023-02-14T04:52:02.284Z,102979.19
2023-02-14T04:54:28.952Z,102970.66
2023-02-14T04:56:55.719Z,102971.56
2023-02-14T04:59:24.682Z,102975.00
2023-02-14T05:01:52.228Z,102971.78
2023-02-14T05:04:18.866Z,102968.34
2023-02-14T05:06:45.447Z,102964.09
2023-02-14T05:09:12.127Z,102969.34
2023-02-14T05:11:38.760Z,102961.59
2023-02-14T05:14:05.382Z,102966.75
2023-02-14T05:16:32.031Z,102962.53
2023-02-14T05:18:58.630Z,102959.19
2023-02-14T05:21:25.453Z,102953.19
2023-02-14T05:23:52.092Z,102955.78
2023-02-14T05:26:18.664Z,102956.81
2023-02-14T05:28:45.240Z,102956.81
2023-02-14T05:31:11.955Z,102946.47
2023-02-14T05:33:38.629Z,102950.88
2023-02-14T05:36:05.438Z,102948.41
2023-02-14T05:38:33.512Z,102946.69
2023-02-14T05:41:02.864Z,102957.09
2023-02-14T05:43:30.397Z,102949.41
2023-02-14T05:45:58.113Z,102952.84
2023-02-14T05:48:25.161Z,102953.88
2023-02-14T05:50:51.814Z,102947.03
2023-02-14T05:53:18.434Z,102946.25
2023-02-14T05:55:45.146Z,102951.44
2023-02-14T05:58:12.590Z,102951.34
2023-02-14T06:00:41.409Z,102951.56
2023-02-14T06:03:08.444Z,102954.22
2023-02-14T06:05:35.018Z,102952.47
2023-02-14T06:08:01.694Z,102953.44
2023-02-14T06:10:28.800Z,102948.53
2023-02-14T06:12:55.586Z,102952.81
2023-02-14T06:15:22.769Z,102945.88
2023-02-14T06:17:54.795Z,102958.81
2023-02-14T06:20:22.272Z,102955.50
2023-02-14T06:22:48.928Z,102957.22
2023-02-14T06:25:15.704Z,102960.66
2023-02-14T06:27:42.511Z,102958.91
2023-02-14T06:30:10.280Z,102961.66
2023-02-14T06:32:36.934Z,102965.97
2023-02-14T06:35:04.151Z,102968.63
2023-02-14T06:37:30.776Z,102969.66
2023-02-14T06:39:57.451Z,102966.09
2023-02-14T06:42:24.266Z,102972.16
2023-02-14T06:44:51.023Z,102974.69
2023-02-14T06:47:17.710Z,102978.16
2023-02-14T06:49:44.311Z,102980.06
2023-02-14T06:52:11.213Z,102984.56
2023-02-14T06:54:37.756Z,102982.44
2023-02-14T06:57:04.393Z,102982.44
2023-02-14T06:59:30.976Z,102981.66
2023-02-14T07:01:57.511Z,102977.53
2023-02-14T07:04:24.045Z,102981.00
2023-02-14T07:06:50.746Z,102980.38
2023-02-14T07:09:18.310Z,102978.84
2023-02-14T07:11:45.464Z,102978.13
2023-02-14T07:14:13.296Z,102976.44
2023-02-14T07:16:40.144Z,102973.97
2023-02-14T07:19:06.690Z,102980.84
2023-02-14T07:21:33.248Z,102969.94
2023-02-14T07:23:59.820Z,102981.13
2023-02-14T07:26:26.389Z,102974.88
2023-02-14T07:28:53.130Z,102973.94
2023-02-14T07:31:23.564Z,102974.63
2023-02-14T07:33:51.545Z,102975.53
2023-02-14T07:36:18.402Z,102971.38
2023-02-14T07:38:45.076Z,102972.19
2023-02-14T07:41:11.640Z,102972.25
2023-02-14T07:43:39.583Z,102968.13
2023-02-14T07:46:06.865Z,102976.88
2023-02-14T07:48:34.585Z,102975.88
2023-02-14T07:51:01.967Z,102974.13
2023-02-14T07:53:28.984Z,102977.59
2023-02-14T07:55:55.736Z,102974.19
2023-02-14T07:58:22.667Z,102979.38
2023-02-14T08:00:49.527Z,102981.34
2023-02-14T08:03:16.165Z,102976.13
2023-02-14T08:05:42.848Z,102983.03
2023-02-14T08:08:09.634Z,102978.69
2023-02-14T08:10:36.242Z,102982.03
2023-02-14T08:13:03.625Z,102978.94
2023-02-14T08:16:04.785Z,102980.28
2023-02-14T08:18:42.084Z,102969.78
2023-02-14T08:21:11.221Z,102971.47
2023-02-14T08:23:38.433Z,102977.19
2023-02-14T08:26:05.474Z,102973.72
2023-02-14T08:28:33.279Z,102977.09
2023-02-14T08:31:00.693Z,102977.94
2023-02-14T08:33:27.655Z,102969.16
2023-02-14T08:35:54.294Z,102976.84
2023-02-14T08:38:20.950Z,102985.28
2023-02-14T08:40:47.663Z,102979.09
2023-02-14T08:43:15.171Z,102976.38
2023-02-14T16:11:44.686Z,102621.03
2023-02-14T16:14:27.157Z,102618.53
2023-02-14T16:17:14.071Z,102621.44
2023-02-14T16:19:43.398Z,102618.13
2023-02-14T16:22:13.090Z,102613.25
2023-02-14T16:24:40.435Z,102621.19
2023-02-14T16:27:07.059Z,102612.84
2023-02-14T16:29:36.801Z,102623.38
2023-02-14T16:32:20.689Z,102613.28
2023-02-14T16:34:48.671Z,102617.06
2023-02-14T16:41:29.533Z,102621.00
2023-02-14T16:43:56.710Z,102617.78
2023-02-14T16:46:30.265Z,102622.47
2023-02-14T16:48:57.470Z,102621.97
2023-02-14T16:51:27.964Z,102628.31
2023-02-14T16:53:57.863Z,102629.47
2023-02-14T16:56:32.350Z,102625.53
2023-02-14T16:58:59.009Z,102631.84
2023-02-14T17:01:26.007Z,102618.31
2023-02-14T17:03:52.599Z,102614.19
2023-02-14T17:06:23.184Z,102629.56
2023-02-14T17:08:52.213Z,102618.84
2023-02-14T17:11:19.947Z,102623.06
2023-02-14T17:13:47.856Z,102619.69
2023-02-14T17:16:16.420Z,102617.75
2023-02-14T17:18:48.661Z,102621.84
2023-02-14T17:21:17.283Z,102634.88
2023-02-14T17:23:43.791Z,102632.19
2023-02-14T17:26:11.227Z,102634.06
2023-02-14T17:28:37.928Z,102640.59
2023-02-14T17:31:05.007Z,102641.91
2023-02-14T17:33:33.327Z,102652.41
2023-02-14T17:36:09.596Z,102644.97
2023-02-14T17:41:40.299Z,102645.63
2023-02-14T17:44:07.313Z,102649.16
2023-02-14T17:46:34.045Z,102653.56
2023-02-14T17:49:02.603Z,102649.38
2023-02-14T17:51:29.943Z,102656.47
2023-02-14T17:53:58.976Z,102654.19
2023-02-14T17:56:26.408Z,102656.41
2023-02-14T17:58:55.105Z,102656.84
2023-02-14T18:01:25.974Z,102655.38
2023-02-14T18:03:54.558Z,102652.06
2023-02-14T18:06:21.738Z,102653.34
2023-02-14T18:08:50.527Z,102645.84
2023-02-14T18:11:18.538Z,102648.78
2023-02-14T18:13:45.843Z,102643.06
2023-02-14T18:16:14.914Z,102648.34
2023-02-14T18:18:42.142Z,102655.13
2023-02-14T18:21:11.017Z,102652.44
2023-02-14T18:27:36.517Z,102648.19
2023-02-14T18:30:03.164Z,102646.13
2023-02-14T18:32:29.744Z,102646.53
2023-02-14T18:34:56.357Z,102642.78
2023-02-14T18:41:47.721Z,102632.28
2023-02-14T18:44:14.318Z,102628.66
2023-02-14T18:46:40.912Z,102624.69
2023-02-14T18:49:08.382Z,102620.84
2023-02-14T18:51:39.141Z,102620.09
2023-02-14T18:54:06.928Z,102622.50
2023-02-14T18:56:35.982Z,102613.34
2023-02-14T18:59:08.967Z,102615.63
2023-02-14T19:01:39.537Z,102614.25
2023-02-14T19:04:09.146Z,102610.63
2023-02-14T19:06:36.492Z,102604.59
2023-02-14T19:09:06.995Z,102608.97
2023-02-14T19:11:33.814Z,102613.41
2023-02-14T19:14:02.198Z,102608.44
2023-02-14T19:16:33.101Z,102603.72
2023-02-14T19:19:02.515Z,102602.28
2023-02-14T19:21:33.612Z,102598.75
2023-02-14T19:24:02.138Z,102597.50
2023-02-14T19:26:32.840Z,102590.00
2023-02-14T19:29:01.814Z,102591.56
2023-02-14T19:31:29.433Z,102592.41
2023-02-14T19:33:56.286Z,102588.34
2023-02-14T19:36:23.937Z,102587.91
2023-02-14T19:38:52.739Z,102583.19
2023-02-14T19:41:26.084Z,102589.25
2023-02-14T19:43:56.761Z,102576.56
2023-02-14T19:46:24.382Z,102577.56
2023-02-14T19:48:51.436Z,102584.66
2023-02-14T19:51:21.867Z,102586.31
2023-02-14T19:53:49.717Z,102590.84
2023-02-14T19:56:25.134Z,102577.88
2023-02-14T19:58:52.421Z,102577.94
2023-02-14T20:01:28.124Z,102572.03
2023-02-14T20:03:54.809Z,102568.28
2023-02-14T20:06:23.212Z,102573.66
2023-02-14T20:08:49.803Z,102568.66
2023-02-14T20:11:41.300Z,102567.28
2023-02-14T20:14:08.949Z,102567.16
2023-02-14T20:16:36.793Z,102564.19
2023-02-14T20:19:12.004Z,102573.72
2023-02-14T20:21:41.757Z,102565.13
2023-02-14T20:24:09.361Z,102557.75
2023-02-14T20:26:37.231Z,102560.34
2023-02-14T20:29:04.897Z,102561.81
2023-02-14T20:31:33.339Z,102562.50
2023-02-14T20:34:00.235Z,102557.78
2023-02-14T20:36:27.723Z,102550.25
2023-02-14T20:38:59.212Z,102558.59
2023-02-14T20:41:27.660Z,102558.72
2023-02-14T20:43:55.235Z,102564.28
2023-02-14T20:46:22.845Z,102563.06
2023-02-14T20:48:50.939Z,102573.00
2023-02-14T20:51:20.054Z,102570.41
2023-02-14T20:53:47.783Z,102559.84
2023-02-14T20:56:15.648Z,102555.47
2023-02-14T20:58:42.599Z,102556.41
2023-02-14T21:01:15.125Z,102557.16
2023-02-14T21:03:43.783Z,102560.41
2023-02-14T21:06:13.502Z,102563.47
2023-02-14T21:08:42.165Z,102560.13
2023-02-14T21:11:11.221Z,102559.50
2023-02-14T21:13:37.829Z,102565.69
2023-02-14T21:16:07.451Z,102560.50
2023-02-14T21:18:35.193Z,102557.44
2023-02-14T21:21:05.914Z,102557.63
2023-02-14T21:23:32.536Z,102560.41
2023-02-14T21:25:59.325Z,102561.78
2023-02-14T21:28:26.215Z,102557.81
2023-02-14T21:30:52.916Z,102559.66
2023-02-14T21:33:19.633Z,102550.19
2023-02-14T21:35:46.335Z,102544.28
2023-02-14T21:38:12.902Z,102547.34
2023-02-14T21:40:39.448Z,102544.84
2023-02-14T21:43:06.028Z,102541.50
2023-02-14T21:45:50.836Z,102548.75
2023-02-14T21:48:35.995Z,102543.81
2023-02-14T21:51:06.409Z,102544.28
2023-02-14T21:53:33.322Z,102544.81
2023-02-14T21:56:10.299Z,102545.00
2023-02-14T21:58:38.292Z,102541.22
2023-02-14T22:01:05.956Z,102538.91
2023-02-14T22:03:33.257Z,102537.31
2023-02-14T22:06:04.720Z,102534.72
2023-02-14T22:08:32.118Z,102527.59
2023-02-14T22:11:00.002Z,102527.75
2023-02-14T22:13:26.916Z,102526.75
2023-02-14T22:15:53.541Z,102529.78
2023-02-14T22:18:20.190Z,102527.44
2023-02-14T22:20:46.743Z,102521.06
2023-02-14T22:23:13.321Z,102521.44
2023-02-14T22:25:39.920Z,102530.66
2023-02-14T22:28:06.475Z,102531.06
2023-02-14T22:30:33.027Z,102532.56
2023-02-14T22:32:59.641Z,102525.13
2023-02-14T22:35:27.046Z,102524.13
2023-02-14T22:37:53.660Z,102526.59
2023-02-14T22:40:20.250Z,102517.41
2023-02-14T22:42:46.882Z,102513.41
2023-02-14T22:45:13.482Z,102515.59
2023-02-14T22:47:40.111Z,102507.00
2023-02-14T22:50:07.513Z,102515.28
2023-02-14T22:52:34.832Z,102513.63
2023-02-14T22:55:01.370Z,102509.75
2023-02-14T22:57:27.972Z,102516.06
2023-02-14T22:59:54.551Z,102514.09
2023-02-14T23:02:21.134Z,102521.16
2023-02-14T23:04:47.658Z,102518.38
2023-02-14T23:07:14.203Z,102519.75
2023-02-14T23:09:40.779Z,102516.22
2023-02-14T23:12:27.309Z,102505.28
2023-02-14T23:15:12.491Z,102512.13
2023-02-14T23:17:57.646Z,102511.00
2023-02-14T23:20:43.085Z,102508.47
2023-02-14T23:23:09.632Z,102512.81
2023-02-14T23:25:36.248Z,102510.72
2023-02-14T23:28:02.757Z,102506.19
2023-02-14T23:30:29.397Z,102507.25
2023-02-14T23:32:55.921Z,102508.59
2023-02-14T23:35:22.503Z,102509.25
2023-02-14T23:37:49.083Z,102511.69
2023-02-14T23:40:15.715Z,102498.09
2023-02-14T23:42:42.253Z,102502.00
2023-02-14T23:45:28.032Z,102500.00
2023-02-14T23:47:54.624Z,102497.34
2023-02-14T23:50:21.220Z,102497.25
2023-02-14T23:52:47.995Z,102504.75
2023-02-14T23:55:14.623Z,102499.25
2023-02-14T23:57:41.161Z,102500.84
